createdAt,value
2017-10-05T00:01:35.636Z,27.40
2017-10-05T00:04:03.123Z,27.90
2017-10-05T00:06:30.669Z,28.40
2017-10-05T00:08:58.103Z,28.70
2017-10-05T00:11:25.527Z,27.80
2017-10-05T00:13:53.045Z,27.80
2017-10-05T00:16:20.464Z,27.90
2017-10-05T00:18:47.949Z,28.30
2017-10-05T00:21:15.382Z,28.00
2017-10-05T00:23:42.795Z,29.50
2017-10-05T00:26:10.320Z,31.00
2017-10-05T00:28:37.731Z,31.80
2017-10-05T00:31:05.160Z,32.60
2017-10-05T00:33:33.516Z,33.50
2017-10-05T00:36:00.952Z,33.40
2017-10-05T00:38:28.423Z,34.00
2017-10-05T00:40:56.020Z,34.20
2017-10-05T00:43:23.439Z,34.50
2017-10-05T00:45:50.891Z,34.30
2017-10-05T00:48:18.316Z,33.90
2017-10-05T00:50:45.808Z,34.30
2017-10-05T00:53:13.443Z,34.30
2017-10-05T00:55:40.886Z,34.80
2017-10-05T00:58:08.292Z,34.70
2017-10-05T01:00:35.948Z,35.50
2017-10-05T01:03:03.367Z,35.10
2017-10-05T01:05:30.851Z,35.50
2017-10-05T01:07:58.271Z,35.20
2017-10-05T01:10:25.763Z,35.10
2017-10-05T01:12:53.195Z,35.20
2017-10-05T01:15:20.679Z,35.90
2017-10-05T01:17:48.116Z,36.00
2017-10-05T01:20:15.587Z,36.10
2017-10-05T01:22:43.053Z,35.90
2017-10-05T01:25:10.541Z,35.80
2017-10-05T01:27:37.941Z,36.30
2017-10-05T01:30:05.359Z,36.70
2017-10-05T01:32:32.869Z,37.00
2017-10-05T01:35:00.321Z,36.70
2017-10-05T01:37:27.751Z,37.00
2017-10-05T01:39:55.239Z,37.00
2017-10-05T01:42:22.671Z,37.50
2017-10-05T01:44:50.096Z,37.70
2017-10-05T01:47:17.551Z,37.80
2017-10-05T01:49:45.064Z,38.10
2017-10-05T01:52:12.481Z,38.50
2017-10-05T01:54:39.972Z,38.50
2017-10-05T01:57:07.392Z,38.50
2017-10-05T01:59:34.887Z,38.40
2017-10-05T02:02:02.316Z,38.40
2017-10-05T02:04:29.804Z,38.10
2017-10-05T02:06:57.232Z,38.40
2017-10-05T02:09:24.708Z,38.40
2017-10-05T02:11:52.168Z,38.30
2017-10-05T02:14:19.808Z,38.30
2017-10-05T02:16:47.327Z,38.20
2017-10-05T02:19:14.764Z,38.20
2017-10-05T02:21:42.302Z,38.50
2017-10-05T02:24:09.734Z,38.70
2017-10-05T02:26:37.242Z,39.20
2017-10-05T02:29:04.864Z,39.30
2017-10-05T02:31:32.288Z,39.50
2017-10-05T02:34:00.471Z,40.30
2017-10-05T02:36:27.905Z,40.20
2017-10-05T02:38:55.416Z,40.00
2017-10-05T02:41:22.870Z,40.10
2017-10-05T02:43:50.331Z,40.30
2017-10-05T02:46:17.788Z,40.70
2017-10-05T02:48:45.205Z,40.80
2017-10-05T02:51:12.697Z,41.10
2017-10-05T02:53:40.115Z,41.00
2017-10-05T02:56:07.544Z,41.20
2017-10-05T02:58:34.960Z,41.10
2017-10-05T03:01:02.499Z,41.10
2017-10-05T03:03:29.924Z,41.20
2017-10-05T03:05:57.344Z,41.30
2017-10-05T03:08:24.899Z,41.00
2017-10-05T03:10:52.315Z,41.40
2017-10-05T03:13:19.807Z,41.50
2017-10-05T03:15:47.227Z,41.10
2017-10-05T03:18:14.717Z,40.90
2017-10-05T03:20:42.140Z,40.70
2017-10-05T03:23:09.632Z,40.40
2017-10-05T03:25:37.051Z,40.30
2017-10-05T03:28:04.479Z,39.50
2017-10-05T03:30:32.000Z,38.80
2017-10-05T03:32:59.453Z,38.30
2017-10-05T03:35:26.894Z,38.00
2017-10-05T03:37:54.368Z,37.80
2017-10-05T03:40:21.815Z,37.30
2017-10-05T03:42:49.248Z,36.90
2017-10-05T03:45:16.669Z,36.70
2017-10-05T03:47:44.105Z,36.60
2017-10-05T03:50:11.555Z,36.30
2017-10-05T03:52:38.984Z,35.90
2017-10-05T03:55:06.411Z,35.60
2017-10-05T03:57:33.926Z,35.40
2017-10-05T04:00:01.480Z,35.10
2017-10-05T04:02:29.103Z,34.60
2017-10-05T04:04:56.693Z,34.40
2017-10-05T04:07:24.119Z,34.40
2017-10-05T04:09:51.530Z,34.40
2017-10-05T04:12:18.947Z,33.80
2017-10-05T04:14:46.431Z,33.30
2017-10-05T04:17:13.872Z,33.10
2017-10-05T04:19:41.303Z,33.10
2017-10-05T04:22:08.787Z,32.60
2017-10-05T04:24:36.226Z,32.60
2017-10-05T04:27:03.736Z,32.80
2017-10-05T04:29:31.168Z,32.60
2017-10-05T04:31:58.707Z,32.30
2017-10-05T04:34:26.164Z,32.10
2017-10-05T04:36:53.596Z,32.10
2017-10-05T04:39:21.019Z,31.50
2017-10-05T04:41:48.539Z,32.20
2017-10-05T04:44:15.967Z,32.30
2017-10-05T04:46:43.392Z,32.00
2017-10-05T04:49:10.857Z,31.70
2017-10-05T04:51:38.280Z,31.90
2017-10-05T04:54:05.691Z,30.70
2017-10-05T04:56:33.117Z,30.00
2017-10-05T04:59:00.535Z,30.00
2017-10-05T05:01:27.966Z,30.00
2017-10-05T05:03:55.541Z,30.30
2017-10-05T05:06:23.099Z,30.00
2017-10-05T05:08:50.520Z,30.00
2017-10-05T05:11:17.952Z,30.10
2017-10-05T05:13:45.471Z,29.70
2017-10-05T05:16:12.895Z,30.10
2017-10-05T05:18:40.320Z,30.10
2017-10-05T05:21:07.784Z,30.10
2017-10-05T05:23:35.204Z,30.00
2017-10-05T05:26:02.635Z,29.70
2017-10-05T05:28:30.106Z,29.50
2017-10-05T05:30:57.660Z,29.40
2017-10-05T05:33:25.124Z,29.70
2017-10-05T05:35:52.567Z,29.60
2017-10-05T05:38:19.991Z,29.60
2017-10-05T05:40:47.501Z,29.20
2017-10-05T05:43:14.912Z,28.70
2017-10-05T05:45:42.439Z,27.40
2017-10-05T05:48:10.163Z,27.20
2017-10-05T05:50:37.599Z,27.70
2017-10-05T05:53:05.079Z,27.70
2017-10-05T05:55:32.499Z,27.50
2017-10-05T05:57:59.988Z,27.30
2017-10-05T06:00:27.408Z,26.90
2017-10-05T06:02:54.831Z,26.20
2017-10-05T06:05:22.264Z,26.50
2017-10-05T06:07:49.821Z,26.00
2017-10-05T06:10:17.438Z,24.30
2017-10-05T06:12:45.651Z,25.20
2017-10-05T06:15:13.058Z,25.20
2017-10-05T06:17:40.556Z,24.80
2017-10-05T06:20:07.987Z,24.10
2017-10-05T06:22:35.400Z,25.10
2017-10-05T06:25:02.845Z,25.60
2017-10-05T06:27:30.396Z,25.70
2017-10-05T06:29:58.035Z,25.70
2017-10-05T06:32:25.463Z,22.70
2017-10-05T06:34:53.659Z,22.30
2017-10-05T06:37:21.137Z,22.20
2017-10-05T06:39:48.592Z,23.30
2017-10-05T06:42:16.021Z,23.40
2017-10-05T06:44:43.454Z,23.70
2017-10-05T06:47:10.875Z,24.00
2017-10-05T06:49:38.323Z,22.70
2017-10-05T06:52:05.865Z,20.20
2017-10-05T06:54:33.299Z,20.70
2017-10-05T06:57:00.785Z,20.30
2017-10-05T06:59:28.238Z,20.60
2017-10-05T07:01:55.824Z,20.90
2017-10-05T07:04:23.462Z,20.90
2017-10-05T07:06:50.901Z,20.40
2017-10-05T07:09:18.722Z,20.90
2017-10-05T07:11:46.158Z,20.40
2017-10-05T07:14:13.760Z,21.10
2017-10-05T07:16:42.155Z,21.00
2017-10-05T07:19:09.595Z,20.90
2017-10-05T07:21:37.810Z,21.50
2017-10-05T07:24:05.224Z,21.50
2017-10-05T07:26:32.712Z,21.40
2017-10-05T07:29:00.137Z,21.20
2017-10-05T07:31:27.565Z,21.20
2017-10-05T07:33:55.086Z,20.10
2017-10-05T07:36:22.535Z,19.60
2017-10-05T07:38:50.015Z,20.60
2017-10-05T07:41:17.453Z,19.20
2017-10-05T07:43:44.868Z,16.40
2017-10-05T07:46:12.295Z,14.30
2017-10-05T07:48:39.744Z,14.50
2017-10-05T07:51:07.172Z,15.40
2017-10-05T07:53:34.736Z,14.40
2017-10-05T07:56:02.160Z,12.80
2017-10-05T07:58:29.596Z,12.40
2017-10-05T08:00:57.024Z,11.40
2017-10-05T08:03:24.443Z,12.10
2017-10-05T08:05:52.015Z,11.60
2017-10-05T08:08:19.448Z,10.70
2017-10-05T08:10:46.856Z,11.00
2017-10-05T08:13:15.255Z,10.70
2017-10-05T08:15:42.671Z,10.70
2017-10-05T08:18:10.220Z,10.90
2017-10-05T08:20:37.643Z,11.30
2017-10-05T08:23:05.080Z,11.00
2017-10-05T08:25:32.591Z,11.10
2017-10-05T08:28:00.048Z,10.30
2017-10-05T08:30:27.472Z,10.10
2017-10-05T08:32:54.903Z,9.70
2017-10-05T08:35:22.313Z,9.50
2017-10-05T08:37:49.785Z,9.90
2017-10-05T08:40:17.187Z,9.80
2017-10-05T08:42:44.611Z,9.70
2017-10-05T08:45:12.234Z,9.20
2017-10-05T08:47:39.694Z,9.00
2017-10-05T08:50:07.103Z,9.40
2017-10-05T08:52:34.599Z,9.60
2017-10-05T08:55:02.024Z,9.10
2017-10-05T08:57:29.436Z,9.00
2017-10-05T08:59:56.855Z,9.40
2017-10-05T09:02:25.144Z,9.10
2017-10-05T09:04:52.687Z,9.00
2017-10-05T09:07:20.266Z,9.20
2017-10-05T09:09:47.771Z,9.10
2017-10-05T09:12:16.883Z,9.50
2017-10-05T09:14:45.100Z,9.20
2017-10-05T09:17:13.427Z,9.70
2017-10-05T09:19:40.846Z,9.10
2017-10-05T09:22:08.379Z,9.90
2017-10-05T09:24:35.812Z,11.10
2017-10-05T09:27:03.231Z,10.30
2017-10-05T09:29:30.655Z,10.30
2017-10-05T09:31:58.079Z,10.30
2017-10-05T09:34:25.668Z,10.80
2017-10-05T09:36:53.091Z,9.40
2017-10-05T09:39:20.580Z,9.80
2017-10-05T09:41:48.041Z,10.00
2017-10-05T09:44:15.453Z,9.20
2017-10-05T09:46:42.871Z,9.20
2017-10-05T09:49:10.300Z,9.20
2017-10-05T09:51:37.869Z,9.10
2017-10-05T09:54:05.284Z,8.30
2017-10-05T09:56:32.768Z,8.70
2017-10-05T09:59:00.175Z,8.80
2017-10-05T10:01:27.591Z,8.20
2017-10-05T10:03:55.139Z,8.50
2017-10-05T10:06:23.519Z,8.30
2017-10-05T10:08:50.979Z,8.80
2017-10-05T10:11:18.415Z,8.90
2017-10-05T10:13:45.839Z,9.40
2017-10-05T10:16:13.253Z,10.00
2017-10-05T10:18:40.803Z,10.50
2017-10-05T10:21:08.219Z,10.90
2017-10-05T10:23:35.707Z,12.20
2017-10-05T10:26:03.120Z,11.70
2017-10-05T10:28:30.543Z,11.60
2017-10-05T10:30:58.080Z,12.00
2017-10-05T10:33:25.544Z,12.40
2017-10-05T10:35:52.951Z,12.40
2017-10-05T10:38:20.449Z,12.30
2017-10-05T10:40:47.865Z,12.20
2017-10-05T10:43:15.297Z,12.40
2017-10-05T10:45:42.725Z,13.20
2017-10-05T10:48:10.291Z,12.70
2017-10-05T10:50:37.723Z,12.60
2017-10-05T10:53:05.147Z,12.30
2017-10-05T10:55:32.569Z,12.60
2017-10-05T10:58:00.025Z,13.50
2017-10-05T11:00:27.444Z,13.30
2017-10-05T11:02:54.883Z,14.00
2017-10-05T11:05:22.472Z,13.90
2017-10-05T11:07:49.923Z,14.30
2017-10-05T11:10:17.347Z,14.90
2017-10-05T11:12:44.764Z,14.90
2017-10-05T11:15:12.288Z,15.30
2017-10-05T11:17:39.704Z,15.90
2017-10-05T11:20:07.201Z,15.50
2017-10-05T11:22:34.616Z,15.90
2017-10-05T11:25:02.045Z,16.50
2017-10-05T11:27:29.455Z,16.70
2017-10-05T11:29:56.880Z,17.50
2017-10-05T11:32:25.103Z,18.30
2017-10-05T11:34:52.523Z,18.60
2017-10-05T11:37:20.009Z,18.30
2017-10-05T11:39:47.695Z,18.80
2017-10-05T11:42:15.235Z,19.60
2017-10-05T11:44:42.997Z,20.20
2017-10-05T11:47:10.453Z,20.30
2017-10-05T11:49:37.879Z,20.90
2017-10-05T11:52:05.366Z,20.30
2017-10-05T11:54:32.827Z,20.80
2017-10-05T11:57:00.281Z,20.90
2017-10-05T11:59:27.740Z,20.90
2017-10-05T12:01:55.473Z,21.00
2017-10-05T12:04:22.964Z,20.20
2017-10-05T12:06:50.403Z,20.90
2017-10-05T12:09:17.835Z,21.00
2017-10-05T12:11:45.327Z,20.90
2017-10-05T12:14:12.756Z,21.60
2017-10-05T12:16:40.234Z,21.40
2017-10-05T12:19:07.693Z,21.50
2017-10-05T12:21:35.150Z,22.20
2017-10-05T12:24:02.608Z,22.40
2017-10-05T12:26:30.038Z,22.50
2017-10-05T12:28:57.441Z,22.90
2017-10-05T12:31:24.980Z,23.30
2017-10-05T12:33:52.396Z,23.70
2017-10-05T12:36:19.819Z,23.70
2017-10-05T12:38:47.248Z,24.40
2017-10-05T12:41:14.712Z,24.40
2017-10-05T12:43:42.164Z,25.10
2017-10-05T12:46:09.612Z,25.90
2017-10-05T12:48:37.177Z,26.20
2017-10-05T12:51:04.628Z,26.60
2017-10-05T12:53:32.050Z,27.00
2017-10-05T12:55:59.479Z,27.90
2017-10-05T12:58:26.992Z,27.90
2017-10-05T13:00:54.417Z,29.80
2017-10-05T13:03:21.904Z,31.80
2017-10-05T13:05:49.326Z,34.10
2017-10-05T13:08:16.736Z,35.40
2017-10-05T13:10:44.168Z,37.40
2017-10-05T13:13:11.731Z,36.00
2017-10-05T13:15:39.191Z,37.70
2017-10-05T13:18:06.612Z,38.10
2017-10-05T13:20:34.041Z,39.10
2017-10-05T13:23:01.552Z,39.20
2017-10-05T13:25:29.316Z,40.30
2017-10-05T13:27:56.731Z,40.40
2017-10-05T13:30:24.231Z,40.70
2017-10-05T13:32:51.643Z,40.30
2017-10-05T13:35:19.071Z,41.50
2017-10-05T13:37:46.601Z,41.40
2017-10-05T13:40:14.057Z,41.30
2017-10-05T13:42:41.470Z,41.30
2017-10-05T13:45:08.969Z,41.30
2017-10-05T13:47:36.384Z,41.10
2017-10-05T13:50:03.881Z,40.50
2017-10-05T13:52:31.312Z,41.10
2017-10-05T13:54:58.736Z,41.10
2017-10-05T13:57:26.252Z,42.10
2017-10-05T13:59:53.680Z,44.30
2017-10-05T14:02:21.155Z,45.00
2017-10-05T14:04:48.627Z,45.80
2017-10-05T14:07:16.055Z,45.80
2017-10-05T14:09:43.529Z,46.50
2017-10-05T14:12:10.975Z,46.40
2017-10-05T14:14:38.396Z,46.40
2017-10-05T14:17:05.828Z,46.30
2017-10-05T14:19:33.256Z,45.90
2017-10-05T14:22:00.696Z,45.20
2017-10-05T14:24:28.195Z,45.00
2017-10-05T14:26:55.732Z,44.10
2017-10-05T14:29:23.187Z,44.40
2017-10-05T14:31:50.637Z,44.10
2017-10-05T14:34:18.061Z,45.00
2017-10-05T14:36:45.570Z,45.50
2017-10-05T14:39:13.183Z,46.00
2017-10-05T14:41:40.770Z,45.90
2017-10-05T14:44:08.187Z,46.00
2017-10-05T14:46:35.628Z,47.10
2017-10-05T14:49:03.052Z,47.00
2017-10-05T14:51:30.479Z,47.30
2017-10-05T14:53:57.960Z,46.70
2017-10-05T14:56:25.391Z,47.30
2017-10-05T14:58:52.959Z,45.90
2017-10-05T15:01:20.383Z,46.30
2017-10-05T15:03:47.840Z,46.40
2017-10-05T15:06:15.344Z,46.10
2017-10-05T15:08:42.770Z,45.60
2017-10-05T15:11:10.192Z,45.20
2017-10-05T15:13:37.702Z,45.00
2017-10-05T15:16:05.119Z,45.00
2017-10-05T15:18:32.616Z,43.80
2017-10-05T15:21:00.040Z,44.20
2017-10-05T15:23:27.472Z,43.10
2017-10-05T15:25:54.989Z,43.30
2017-10-05T15:28:22.623Z,42.50
2017-10-05T15:30:50.195Z,42.90
2017-10-05T15:33:17.629Z,42.10
2017-10-05T15:35:45.115Z,42.70
2017-10-05T15:38:12.549Z,44.00
2017-10-05T15:40:39.955Z,44.60
2017-10-05T15:43:07.383Z,44.90
2017-10-05T15:45:34.821Z,44.50
2017-10-05T15:48:02.399Z,43.70
2017-10-05T15:50:29.833Z,43.10
2017-10-05T15:52:57.256Z,41.50
2017-10-05T15:55:24.767Z,40.40
2017-10-05T15:57:52.187Z,40.40
2017-10-05T16:00:19.626Z,39.70
2017-10-05T16:02:47.048Z,39.50
2017-10-05T16:05:14.597Z,38.50
2017-10-05T16:07:42.047Z,39.10
2017-10-05T16:10:09.508Z,38.50
2017-10-05T16:12:36.956Z,38.60
2017-10-05T16:15:04.412Z,38.20
2017-10-05T16:17:31.881Z,38.40
2017-10-05T16:19:59.327Z,38.50
2017-10-05T16:22:26.742Z,39.20
2017-10-05T16:24:54.167Z,39.10
2017-10-05T16:27:21.604Z,39.50
2017-10-05T16:29:49.068Z,39.00
2017-10-05T16:32:16.614Z,39.00
2017-10-05T16:34:44.315Z,39.70
2017-10-05T16:37:11.738Z,38.50
2017-10-05T16:39:39.283Z,39.80
2017-10-05T16:42:06.703Z,39.50
2017-10-05T16:44:34.204Z,39.60
2017-10-05T16:47:01.975Z,39.70
2017-10-05T16:49:29.423Z,39.70
2017-10-05T16:51:56.957Z,39.70
2017-10-05T16:54:24.516Z,39.70
2017-10-05T16:56:52.019Z,39.70
2017-10-05T16:59:19.464Z,39.60
2017-10-05T17:01:47.011Z,39.40
2017-10-05T17:04:14.463Z,39.60
2017-10-05T17:06:41.882Z,39.90
2017-10-05T17:09:09.383Z,39.60
2017-10-05T17:11:36.815Z,39.30
2017-10-05T17:14:04.299Z,39.50
2017-10-05T17:16:31.748Z,39.20
2017-10-05T17:18:59.166Z,38.90
2017-10-05T17:21:26.656Z,39.30
2017-10-05T17:23:54.113Z,39.40
2017-10-05T17:26:21.572Z,39.30
2017-10-05T17:28:48.991Z,39.20
2017-10-05T17:31:16.481Z,39.80
2017-10-05T17:33:43.938Z,39.80
2017-10-05T17:36:11.376Z,39.80
2017-10-05T17:38:38.801Z,39.70
2017-10-05T17:41:06.244Z,39.60
2017-10-05T17:43:33.787Z,39.90
2017-10-05T17:46:01.412Z,39.70
2017-10-05T17:48:28.999Z,39.60
2017-10-05T17:50:56.448Z,39.40
2017-10-05T17:53:23.859Z,39.10
2017-10-05T17:55:51.303Z,39.20
2017-10-05T17:58:18.812Z,39.50
2017-10-05T18:00:46.256Z,38.70
2017-10-05T18:03:13.724Z,39.50
2017-10-05T18:05:41.487Z,39.00
2017-10-05T18:08:08.943Z,38.60
2017-10-05T18:10:36.404Z,39.40
2017-10-05T18:13:03.859Z,39.80
2017-10-05T18:15:31.305Z,39.00
2017-10-05T18:17:58.772Z,39.70
2017-10-05T18:20:26.528Z,39.20
2017-10-05T18:22:53.986Z,40.20
2017-10-05T18:25:21.703Z,39.90
2017-10-05T18:27:49.136Z,40.20
2017-10-05T18:30:16.561Z,40.10
2017-10-05T18:32:44.028Z,40.70
2017-10-05T18:35:11.451Z,40.30
2017-10-05T18:37:39.032Z,40.60
2017-10-05T18:40:06.500Z,40.60
2017-10-05T18:42:34.249Z,41.20
2017-10-05T18:45:01.689Z,41.60
2017-10-05T18:47:29.104Z,41.80
2017-10-05T18:49:56.551Z,42.30
2017-10-05T18:52:23.979Z,41.90
2017-10-05T18:54:51.491Z,42.00
2017-10-05T18:57:18.991Z,42.00
2017-10-05T18:59:46.439Z,42.00
2017-10-05T19:02:13.872Z,41.70
2017-10-05T19:04:41.319Z,41.80
2017-10-05T19:07:08.732Z,42.00
2017-10-05T19:09:36.277Z,42.60
2017-10-05T19:12:04.038Z,42.50
2017-10-05T19:14:31.698Z,42.50
2017-10-05T19:16:59.255Z,42.40
2017-10-05T19:19:27.029Z,42.40
2017-10-05T19:21:55.405Z,42.50
2017-10-05T19:24:22.856Z,42.40
2017-10-05T19:26:50.330Z,42.20
2017-10-05T19:29:17.769Z,41.70
2017-10-05T19:31:45.541Z,41.70
2017-10-05T19:34:12.989Z,41.50
2017-10-05T19:36:42.142Z,41.90
2017-10-05T19:39:09.625Z,41.80
2017-10-05T19:41:37.208Z,40.70
2017-10-05T19:44:04.966Z,40.30
2017-10-05T19:46:32.393Z,39.90
2017-10-05T19:48:59.826Z,40.20
2017-10-05T19:51:27.340Z,40.30
2017-10-05T19:53:55.098Z,40.10
2017-10-05T19:56:22.552Z,40.10
2017-10-05T19:58:49.980Z,39.40
2017-10-05T20:01:17.434Z,39.50
2017-10-05T20:03:44.870Z,39.80
2017-10-05T20:06:12.292Z,39.90
2017-10-05T20:08:39.845Z,40.40
2017-10-05T20:11:07.499Z,40.60
2017-10-05T20:13:52.815Z,40.90
2017-10-05T20:16:35.123Z,40.90
2017-10-05T20:19:04.583Z,41.10
2017-10-05T20:21:32.434Z,40.90
2017-10-05T20:37:24.767Z,39.30
2017-10-05T20:39:52.534Z,39.60
2017-10-05T20:42:19.988Z,39.30
2017-10-05T20:44:47.419Z,39.20
2017-10-05T20:47:14.903Z,39.00
2017-10-05T20:49:42.357Z,39.10
2017-10-05T20:52:09.776Z,38.90
2017-10-05T20:54:37.217Z,39.10
2017-10-05T20:57:04.641Z,38.90
2017-10-05T20:59:32.185Z,39.00
2017-10-05T21:01:59.646Z,39.00
2017-10-05T21:04:27.405Z,39.10
2017-10-05T21:06:55.032Z,39.00
2017-10-05T21:09:22.497Z,39.20
2017-10-05T21:11:49.976Z,39.10
2017-10-05T21:14:17.539Z,39.10
2017-10-05T21:16:45.302Z,39.00
2017-10-05T21:19:12.744Z,39.00
2017-10-05T21:21:40.168Z,38.90
2017-10-05T21:24:07.605Z,39.20
2017-10-05T21:26:35.032Z,39.40
2017-10-05T21:29:02.583Z,39.60
2017-10-05T21:31:30.041Z,39.60
2017-10-05T21:33:57.472Z,40.20
2017-10-05T21:36:24.945Z,40.30
2017-10-05T21:38:52.381Z,40.90
2017-10-05T21:41:19.865Z,40.80
2017-10-05T21:43:47.312Z,41.70
2017-10-05T21:46:14.768Z,41.30
2017-10-05T21:48:42.196Z,40.90
2017-10-05T21:51:09.629Z,41.20
2017-10-05T21:53:37.057Z,41.40
2017-10-05T21:56:04.508Z,41.30
2017-10-05T21:58:31.956Z,41.30
2017-10-05T22:00:59.448Z,41.20
2017-10-05T22:03:26.961Z,41.20
2017-10-05T22:05:54.417Z,41.20
2017-10-05T22:08:21.885Z,41.30
2017-10-05T22:10:49.328Z,41.30
2017-10-05T22:13:16.793Z,41.80
2017-10-05T22:15:44.254Z,42.10
2017-10-05T22:18:11.669Z,42.00
2017-10-05T22:20:39.097Z,42.20
2017-10-05T22:23:06.612Z,42.10
2017-10-05T22:25:34.044Z,41.70
2017-10-05T22:28:01.525Z,41.80
2017-10-05T22:30:28.989Z,41.50
2017-10-05T22:32:56.445Z,41.70
2017-10-05T22:35:23.881Z,41.30
2017-10-05T22:37:51.352Z,41.90
2017-10-05T22:40:18.784Z,41.60
2017-10-05T22:42:46.209Z,41.90
2017-10-05T22:45:13.704Z,41.40
2017-10-05T22:47:41.129Z,41.60
2017-10-05T22:50:08.633Z,41.80
2017-10-05T22:52:36.093Z,41.90
2017-10-05T22:55:03.720Z,41.80
2017-10-05T22:57:31.175Z,41.80
2017-10-05T22:59:59.344Z,41.70
2017-10-05T23:02:26.777Z,41.60
2017-10-05T23:04:54.288Z,41.80
2017-10-05T23:07:21.729Z,41.80
2017-10-05T23:09:49.152Z,42.00
2017-10-05T23:12:16.601Z,42.50
2017-10-05T23:14:44.031Z,41.60
2017-10-05T23:17:11.469Z,41.30
2017-10-05T23:19:39.057Z,40.80
2017-10-05T23:22:06.801Z,40.70
2017-10-05T23:24:34.353Z,40.30
2017-10-05T23:27:02.012Z,41.50
2017-10-05T23:29:29.648Z,40.60
2017-10-05T23:31:57.232Z,40.30
2017-10-05T23:34:24.769Z,39.60
2017-10-05T23:36:52.452Z,39.30
2017-10-05T23:39:20.084Z,39.00
2017-10-05T23:41:47.616Z,39.10
2017-10-05T23:44:15.057Z,40.10
2017-10-05T23:46:42.502Z,39.80
2017-10-05T23:49:09.948Z,39.90
2017-10-05T23:51:37.509Z,39.70
2017-10-05T23:54:05.261Z,40.30
2017-10-05T23:56:32.681Z,39.70
2017-10-05T23:59:00.121Z,39.90
